• Join FlightAware (Why Join?)
  • Login
  • US Flag 
11:08AM EST


 

Airport Tracker/Info


-or-


 

Live Flight TrackerFlight Track Log ✈ FLG3862 ✈ 25-Apr-2013 ✈ KBTV - KDTW

Flight Track Log - Related Links

Times and Time Zones

All times are in EDT time to prevent confusion due to time zone crossing. See the FLG3862 flight status page for this flight to view local times or setup timezone preferences in your user account.

Time Position Orientation Groundspeed Altitude Reporting Facility
EDT Latitude Longitude Course Direction KTS MPH feet Rate Location/Type
12:39PM 44.5203 -73.3339 268° West 237 273 6,800  Level Boston Center
12:40PM 44.3827 -73.6256 253° West  Level FlightAware Approximate
12:40PM 44.5006 -73.4500 257° West 255 293 9,900  Level Boston Center
12:41PM 44.3604 -73.7441 259° West  Level FlightAware Approximate
12:41PM 44.4808 -73.5603 256° West 279 321 11,000  Level Boston Center
12:42PM 44.3432 -73.8644 259° West  Level FlightAware Approximate
12:42PM 44.4589 -73.6792 256° West 300 345 13,400  Level Boston Center
12:43PM 44.3241 -73.9839 256° West  Level FlightAware Approximate
12:43PM 44.4325 -73.7947 252° West 313 360 15,500  Level Boston Center
12:44PM 44.4081 -73.9164 254° West 320 368 17,400 1,740 Climbing Boston Center
12:45PM 44.3856 -74.0378 255° West 320 368 19,000 1,440 Climbing Boston Center
12:46PM 44.3611 -74.1475 253° West 320 368 20,300 1,200 Climbing Boston Center
12:47PM 44.3364 -74.2744 255° West 325 374 21,500 1,020 Climbing Boston Center
12:48PM 44.3092 -74.3983 253° West 330 380 22,400 960 Climbing Boston Center
12:49PM 44.2842 -74.5281 255° West 335 386 23,500 1,080 Climbing Boston Center
12:50PM 44.2567 -74.6517 253° West 340 391 24,600 1,020 Climbing Boston Center
12:51PM 44.2333 -74.7756 255° West 340 391 25,600 960 Climbing Boston Center
12:52PM 44.2058 -74.9019 253° West 340 391 26,600 960 Climbing Boston Center
12:53PM 44.1822 -75.0225 255° West 335 386 27,600 660 Climbing Boston Center
12:54PM 44.1544 -75.1428 252° West 335 386 28,000 180 Climbing Boston Center
12:55PM 44.1333 -75.2461 254° West 335 386 28,000  Level Boston Center
12:56PM 44.1003 -75.4006 253° West 340 391 28,000  Level Boston Center
12:57PM 44.0717 -75.5322 253° West 340 391 28,000  Level Boston Center
12:58PM 44.0411 -75.6633 252° West 346 398 28,000  Level Boston Center
12:59PM 44.0142 -75.7978 254° West 359 413 28,000  Level Boston Center
01:00PM 43.9853 -75.9289 253° West 359 413 28,000  Level Boston Center
01:01PM 43.9583 -76.0600 254° West 359 413 28,000  Level Boston Center
01:02PM 43.9517 -76.2011 266° West 359 413 28,000  Level Boston Center
01:03PM 43.9472 -76.3392 267° West 359 413 28,000  Level Boston Center
01:04PM 43.9442 -76.4833 268° West 369 425 28,000  Level Boston Center
01:05PM 43.9333 -76.7000 266° West 370 426 28,000  Level Toronto Center
01:06PM 43.9167 -76.8333 260° West 370 426 28,000  Level Toronto Center
01:07PM 43.9167 -76.9667 270° West 370 426 28,000  Level Toronto Center
01:08PM 43.9000 -77.1167 261° West 370 426 28,000  Level Toronto Center
01:09PM 43.9000 -77.2500 270° West 370 426 28,000  Level Toronto Center
01:10PM 43.9167 -77.3833 280° West 370 426 28,000  Level Toronto Center
01:11PM 43.9000 -77.5500 262° West 370 426 28,000  Level Toronto Center
01:12PM 43.9000 -77.6833 270° West 370 426 28,000  Level Toronto Center
01:13PM 43.8833 -77.8333 261° West 370 426 28,000  Level Toronto Center
01:14PM 43.8833 -77.9667 270° West 370 426 28,000  Level Toronto Center
01:15PM 43.8667 -78.1000 260° West 370 426 28,000  Level Toronto Center
01:16PM 43.8667 -78.2500 270° West 360 414 28,000  Level Toronto Center
01:17PM 43.8500 -78.3833 260° West 360 414 28,000  Level Toronto Center
01:18PM 43.8667 -78.5167 280° West 360 414 28,000  Level Toronto Center
01:19PM 43.8500 -78.6667 261° West 360 414 28,000  Level Toronto Center
01:20PM 43.8333 -78.8000 260° West 360 414 28,000  Level Toronto Center
01:21PM 43.7833 -78.9167 239° Southwest 360 414 28,000  Level Toronto Center
01:22PM 43.7167 -79.0333 232° Southwest 360 414 28,000  Level Toronto Center
01:23PM 43.6500 -79.1333 227° Southwest 360 414 28,000  Level Toronto Center
01:24PM 43.6000 -79.2333 235° Southwest 360 414 28,000  Level Toronto Center
01:25PM 43.5333 -79.3500 232° Southwest 360 414 28,000  Level Toronto Center
01:26PM 43.4667 -79.4667 232° Southwest 360 414 28,000  Level Toronto Center
01:27PM 43.4167 -79.5833 239° Southwest 360 414 28,000  Level Toronto Center
01:28PM 43.3500 -79.6833 228° Southwest 370 426 28,000  Level Toronto Center
01:29PM 43.3000 -79.8167 243° Southwest 370 426 28,000  Level Toronto Center
01:30PM 43.2333 -79.9333 232° Southwest 370 426 28,000 -420 Level Toronto Center
01:31PM 43.1667 -80.0167 222° Southwest 370 426 27,200 -720 Descending Toronto Center
01:32PM 43.1167 -80.1333 240° Southwest 360 414 26,600 -660 Descending Toronto Center
01:33PM 43.0500 -80.2500 232° Southwest 360 414 25,900 -720 Descending Toronto Center
01:34PM 43.0000 -80.3667 240° Southwest 350 403 25,200 -720 Descending Toronto Center
01:35PM 42.9333 -80.4500 222° Southwest 350 403 24,500 -720 Descending Toronto Center
01:36PM 42.8833 -80.5667 240° Southwest 350 403 23,800 -600 Descending Toronto Center
01:37PM 42.8353 -80.6625 236° Southwest 354 407 23,400 -480 Descending Cleveland Center
01:38PM 42.7769 -80.7669 233° Southwest 354 407 23,000 -240 Descending Cleveland Center
01:39PM 42.7161 -80.8742 232° Southwest 354 407 23,000  Level Cleveland Center
01:40PM 42.6928 -81.0181 258° West 360 414 23,000  Level Cleveland Center
01:41PM 42.6775 -81.1536 261° West 360 414 23,000  Level Cleveland Center
01:42PM 42.6603 -81.2833 260° West 355 409 23,000  Level Cleveland Center
01:43PM 42.6469 -81.4131 262° West 355 409 23,000  Level Cleveland Center
01:44PM 42.6314 -81.5428 261° West 349 402 23,000 -60 Level Cleveland Center
01:45PM 42.6156 -81.6750 261° West 354 407 22,900 -600 Descending Cleveland Center
01:46PM 42.6042 -81.7764 261° West 348 400 21,800 -1,140 Descending Cleveland Center
01:47PM 42.5858 -81.9142 260° West 348 400 20,700 -1,200 Descending Cleveland Center
01:48PM 42.5719 -82.0322 261° West 341 392 19,400 -1,500 Descending Cleveland Center
01:49PM 42.5578 -82.1531 261° West 335 386 17,800 -2,100 Descending Cleveland Center
01:50PM 42.5528 -82.2122 263° West 322 371 16,400 -2,640 Descending Cleveland Center
01:50PM 42.5417 -82.2711 256° West 335 386 15,200 -2,760 Descending Cleveland Center
01:51PM 42.5272 -82.3864 260° West 330 380 12,200 -1,740 Descending Cleveland Center
01:52PM 42.5175 -82.4847 262° West 241 277 12,000 -240 Descending Cleveland Center
01:53PM 42.4950 -82.5769 252° West 275 316 11,800 -960 Descending Cleveland Center
01:54PM 42.4667 -82.6547 244° Southwest 252 290 10,000 -1,440 Descending Cleveland Center
01:55PM 42.4297 -82.7267 235° Southwest 241 277 9,000 -1,020 Descending Cleveland Center
01:57PM 42.3967 -82.8211 245° Southwest 229 264 7,800 -1,080 Descending Cleveland Center
01:57PM 42.4058 -82.8892 280° West 230 265 6,900 -1,020 Descending Cleveland Center
01:58PM 42.4336 -82.9547 300° West 215 247 6,000 -480 Descending Cleveland Center
01:59PM 42.4758 -83.0239 310° West 225 259 6,000  Level Cleveland Center
02:01PM 42.5033 -83.1122 293° West 165 190 6,000  Level Cleveland Center
02:02PM 42.4689 -83.1531 221° Southwest 161 185 6,000 -120 Level Cleveland Center
02:02PM 42.4331 -83.1769 206° Southwest 155 178 5,800 -600 Descending Cleveland Center
02:04PM 42.3906 -83.2119 211° Southwest 167 192 4,800 -1,020 Descending Cleveland Center
02:05PM 42.3483 -83.2381 205° Southwest 157 181 3,700 -960 Descending Cleveland Center
02:06PM 42.3078 -83.2703 210° Southwest 165 190 2,900 -780 Descending Cleveland Center